sensor_id;sensor_type;location;lat;lon;timestamp;temperature;humidity
52859;DHT22;38721;53.098;6.596;2023-08-08T00:01:27;13.10;99.90
52859;DHT22;38721;53.098;6.596;2023-08-08T00:03:53;13.10;99.90
52859;DHT22;38721;53.098;6.596;2023-08-08T00:06:19;13.10;99.90
52859;DHT22;38721;53.098;6.596;2023-08-08T00:08:45;13.10;99.90
52859;DHT22;38721;53.098;6.596;2023-08-08T00:11:10;13.10;99.90
52859;DHT22;38721;53.098;6.596;2023-08-08T00:13:36;13.20;99.90
52859;DHT22;38721;53.098;6.596;2023-08-08T00:16:02;13.20;99.90
52859;DHT22;38721;53.098;6.596;2023-08-08T00:18:28;13.20;99.90
52859;DHT22;38721;53.098;6.596;2023-08-08T00:20:54;13.20;99.90
52859;DHT22;38721;53.098;6.596;2023-08-08T00:23:19;13.20;99.90
52859;DHT22;38721;53.098;6.596;2023-08-08T00:25:45;13.20;99.90
52859;DHT22;38721;53.098;6.596;2023-08-08T00:28:15;13.20;99.90
52859;DHT22;38721;53.098;6.596;2023-08-08T00:30:44;13.20;99.90
52859;DHT22;38721;53.098;6.596;2023-08-08T00:33:10;13.20;99.90
52859;DHT22;38721;53.098;6.596;2023-08-08T00:35:35;13.20;99.90
52859;DHT22;38721;53.098;6.596;2023-08-08T00:38:01;13.10;99.90
52859;DHT22;38721;53.098;6.596;2023-08-08T00:40:27;13.10;99.90
52859;DHT22;38721;53.098;6.596;2023-08-08T00:42:53;13.10;99.90
52859;DHT22;38721;53.098;6.596;2023-08-08T00:45:18;13.10;99.90
52859;DHT22;38721;53.098;6.596;2023-08-08T00:47:44;13.00;99.90
52859;DHT22;38721;53.098;6.596;2023-08-08T00:50:10;13.10;99.90
52859;DHT22;38721;53.098;6.596;2023-08-08T00:52:38;13.00;99.90
52859;DHT22;38721;53.098;6.596;2023-08-08T00:55:05;13.00;99.90
52859;DHT22;38721;53.098;6.596;2023-08-08T00:57:31;13.00;99.90
52859;DHT22;38721;53.098;6.596;2023-08-08T00:59:56;13.00;99.90
52859;DHT22;38721;53.098;6.596;2023-08-08T01:02:22;12.90;99.90
52859;DHT22;38721;53.098;6.596;2023-08-08T01:04:48;13.00;99.90
52859;DHT22;38721;53.098;6.596;2023-08-08T01:07:30;12.90;99.90
52859;DHT22;38721;53.098;6.596;2023-08-08T01:10:09;12.90;99.90
52859;DHT22;38721;53.098;6.596;2023-08-08T01:12:51;12.90;99.90
52859;DHT22;38721;53.098;6.596;2023-08-08T01:15:18;12.90;99.90
52859;DHT22;38721;53.098;6.596;2023-08-08T01:17:46;12.90;99.90
52859;DHT22;38721;53.098;6.596;2023-08-08T01:20:13;12.90;99.90
52859;DHT22;38721;53.098;6.596;2023-08-08T01:22:46;12.90;99.90
52859;DHT22;38721;53.098;6.596;2023-08-08T01:25:13;12.90;99.90
52859;DHT22;38721;53.098;6.596;2023-08-08T01:27:39;12.80;99.90
52859;DHT22;38721;53.098;6.596;2023-08-08T01:30:07;12.80;99.90
52859;DHT22;38721;53.098;6.596;2023-08-08T01:32:32;12.80;99.90
52859;DHT22;38721;53.098;6.596;2023-08-08T01:34:58;12.80;99.90
52859;DHT22;38721;53.098;6.596;2023-08-08T01:37:50;12.80;99.90
52859;DHT22;38721;53.098;6.596;2023-08-08T01:40:18;12.70;99.90
52859;DHT22;38721;53.098;6.596;2023-08-08T01:42:47;12.70;99.90
52859;DHT22;38721;53.098;6.596;2023-08-08T01:45:15;12.60;99.90
52859;DHT22;38721;53.098;6.596;2023-08-08T01:47:41;12.60;99.90
52859;DHT22;38721;53.098;6.596;2023-08-08T01:50:07;12.60;99.90
52859;DHT22;38721;53.098;6.596;2023-08-08T01:52:34;12.60;99.90
52859;DHT22;38721;53.098;6.596;2023-08-08T01:55:06;12.60;99.90
52859;DHT22;38721;53.098;6.596;2023-08-08T01:57:32;12.70;99.90
52859;DHT22;38721;53.098;6.596;2023-08-08T01:59:57;12.70;99.90
52859;DHT22;38721;53.098;6.596;2023-08-08T02:02:23;12.70;99.90
52859;DHT22;38721;53.098;6.596;2023-08-08T02:04:48;12.70;99.90
52859;DHT22;38721;53.098;6.596;2023-08-08T02:07:14;12.70;99.90
52859;DHT22;38721;53.098;6.596;2023-08-08T02:09:41;12.70;99.90
52859;DHT22;38721;53.098;6.596;2023-08-08T02:12:06;12.70;99.90
52859;DHT22;38721;53.098;6.596;2023-08-08T02:14:32;12.70;99.90
52859;DHT22;38721;53.098;6.596;2023-08-08T02:16:58;12.70;99.90
52859;DHT22;38721;53.098;6.596;2023-08-08T02:19:24;12.70;99.90
52859;DHT22;38721;53.098;6.596;2023-08-08T02:21:49;12.80;99.90
52859;DHT22;38721;53.098;6.596;2023-08-08T02:24:15;12.80;99.90
52859;DHT22;38721;53.098;6.596;2023-08-08T02:26:41;12.80;99.90
52859;DHT22;38721;53.098;6.596;2023-08-08T02:29:06;12.90;99.90
52859;DHT22;38721;53.098;6.596;2023-08-08T02:31:32;12.90;99.90
52859;DHT22;38721;53.098;6.596;2023-08-08T02:33:58;12.90;99.90
52859;DHT22;38721;53.098;6.596;2023-08-08T02:36:23;12.90;99.90
52859;DHT22;38721;53.098;6.596;2023-08-08T02:38:49;12.90;99.90
52859;DHT22;38721;53.098;6.596;2023-08-08T02:41:19;12.90;99.90
52859;DHT22;38721;53.098;6.596;2023-08-08T02:43:45;12.90;99.90
52859;DHT22;38721;53.098;6.596;2023-08-08T02:46:11;12.90;99.90
52859;DHT22;38721;53.098;6.596;2023-08-08T02:48:37;12.90;99.90
52859;DHT22;38721;53.098;6.596;2023-08-08T02:51:03;12.90;99.90
52859;DHT22;38721;53.098;6.596;2023-08-08T02:53:28;12.90;99.90
52859;DHT22;38721;53.098;6.596;2023-08-08T02:55:54;13.00;99.90
52859;DHT22;38721;53.098;6.596;2023-08-08T02:58:19;13.00;99.90
52859;DHT22;38721;53.098;6.596;2023-08-08T03:00:45;13.00;99.90
52859;DHT22;38721;53.098;6.596;2023-08-08T03:03:11;13.10;99.90
52859;DHT22;38721;53.098;6.596;2023-08-08T03:05:36;13.00;99.90
52859;DHT22;38721;53.098;6.596;2023-08-08T03:08:05;13.10;99.90
52859;DHT22;38721;53.098;6.596;2023-08-08T03:10:30;13.10;99.90
52859;DHT22;38721;53.098;6.596;2023-08-08T03:12:56;13.10;99.90
52859;DHT22;38721;53.098;6.596;2023-08-08T03:15:22;13.10;99.90
52859;DHT22;38721;53.098;6.596;2023-08-08T03:17:47;13.10;99.90
52859;DHT22;38721;53.098;6.596;2023-08-08T03:20:13;13.10;99.90
52859;DHT22;38721;53.098;6.596;2023-08-08T03:22:39;13.20;99.90
52859;DHT22;38721;53.098;6.596;2023-08-08T03:25:05;13.20;99.90
52859;DHT22;38721;53.098;6.596;2023-08-08T03:27:30;13.20;99.90
52859;DHT22;38721;53.098;6.596;2023-08-08T03:29:56;13.10;99.90
52859;DHT22;38721;53.098;6.596;2023-08-08T03:32:22;13.10;99.90
52859;DHT22;38721;53.098;6.596;2023-08-08T03:34:48;13.10;99.90
52859;DHT22;38721;53.098;6.596;2023-08-08T03:37:13;13.20;99.90
52859;DHT22;38721;53.098;6.596;2023-08-08T03:39:39;13.30;99.90
52859;DHT22;38721;53.098;6.596;2023-08-08T03:42:05;13.30;99.90
52859;DHT22;38721;53.098;6.596;2023-08-08T03:44:31;13.40;99.90
52859;DHT22;38721;53.098;6.596;2023-08-08T03:46:56;13.30;99.90
52859;DHT22;38721;53.098;6.596;2023-08-08T03:49:22;13.30;99.90
52859;DHT22;38721;53.098;6.596;2023-08-08T03:51:50;13.40;99.90
52859;DHT22;38721;53.098;6.596;2023-08-08T03:54:17;13.40;99.90
52859;DHT22;38721;53.098;6.596;2023-08-08T03:56:43;13.50;99.90
52859;DHT22;38721;53.098;6.596;2023-08-08T03:59:09;13.50;99.90
52859;DHT22;38721;53.098;6.596;2023-08-08T04:01:35;13.50;99.90
52859;DHT22;38721;53.098;6.596;2023-08-08T04:04:03;13.50;99.90
52859;DHT22;38721;53.098;6.596;2023-08-08T04:06:29;13.40;99.90
52859;DHT22;38721;53.098;6.596;2023-08-08T04:08:55;13.30;99.90
52859;DHT22;38721;53.098;6.596;2023-08-08T04:11:24;13.30;99.90
52859;DHT22;38721;53.098;6.596;2023-08-08T04:13:52;13.30;99.90
52859;DHT22;38721;53.098;6.596;2023-08-08T04:16:18;13.30;99.90
52859;DHT22;38721;53.098;6.596;2023-08-08T04:18:44;13.30;99.90
52859;DHT22;38721;53.098;6.596;2023-08-08T04:21:09;13.30;99.90
52859;DHT22;38721;53.098;6.596;2023-08-08T04:23:35;13.30;99.90
52859;DHT22;38721;53.098;6.596;2023-08-08T04:26:01;13.30;99.90
52859;DHT22;38721;53.098;6.596;2023-08-08T04:28:26;13.40;99.90
52859;DHT22;38721;53.098;6.596;2023-08-08T04:30:52;13.30;99.90
52859;DHT22;38721;53.098;6.596;2023-08-08T04:33:17;13.40;99.90
52859;DHT22;38721;53.098;6.596;2023-08-08T04:35:43;13.40;99.90
52859;DHT22;38721;53.098;6.596;2023-08-08T04:38:09;13.40;99.90
52859;DHT22;38721;53.098;6.596;2023-08-08T04:40:34;13.40;99.90
52859;DHT22;38721;53.098;6.596;2023-08-08T04:43:00;13.40;99.90
52859;DHT22;38721;53.098;6.596;2023-08-08T04:45:26;13.30;99.90
52859;DHT22;38721;53.098;6.596;2023-08-08T04:47:52;13.30;99.90
52859;DHT22;38721;53.098;6.596;2023-08-08T04:50:18;13.30;99.90
52859;DHT22;38721;53.098;6.596;2023-08-08T04:52:45;13.30;99.90
52859;DHT22;38721;53.098;6.596;2023-08-08T04:55:10;13.20;99.90
52859;DHT22;38721;53.098;6.596;2023-08-08T04:57:36;13.20;99.90
52859;DHT22;38721;53.098;6.596;2023-08-08T05:00:02;13.20;99.90
52859;DHT22;38721;53.098;6.596;2023-08-08T05:02:30;13.20;99.90
52859;DHT22;38721;53.098;6.596;2023-08-08T05:04:56;13.30;99.90
52859;DHT22;38721;53.098;6.596;2023-08-08T05:07:22;13.30;99.90
52859;DHT22;38721;53.098;6.596;2023-08-08T05:09:50;13.30;99.90
52859;DHT22;38721;53.098;6.596;2023-08-08T05:12:17;13.40;99.90
52859;DHT22;38721;53.098;6.596;2023-08-08T05:14:43;13.30;99.90
52859;DHT22;38721;53.098;6.596;2023-08-08T05:17:08;13.30;99.90
52859;DHT22;38721;53.098;6.596;2023-08-08T05:19:34;13.30;99.90
52859;DHT22;38721;53.098;6.596;2023-08-08T05:22:00;13.30;99.90
52859;DHT22;38721;53.098;6.596;2023-08-08T05:24:26;13.30;99.90
52859;DHT22;38721;53.098;6.596;2023-08-08T05:26:52;13.50;99.90
52859;DHT22;38721;53.098;6.596;2023-08-08T05:29:19;13.50;99.90
52859;DHT22;38721;53.098;6.596;2023-08-08T05:31:45;13.50;99.90
52859;DHT22;38721;53.098;6.596;2023-08-08T05:34:11;13.70;99.90
52859;DHT22;38721;53.098;6.596;2023-08-08T05:36:37;13.70;99.90
52859;DHT22;38721;53.098;6.596;2023-08-08T05:39:03;13.80;99.90
52859;DHT22;38721;53.098;6.596;2023-08-08T05:41:29;13.80;99.90
52859;DHT22;38721;53.098;6.596;2023-08-08T05:43:54;13.90;99.90
52859;DHT22;38721;53.098;6.596;2023-08-08T05:46:20;14.00;99.90
52859;DHT22;38721;53.098;6.596;2023-08-08T05:48:46;14.10;99.90
52859;DHT22;38721;53.098;6.596;2023-08-08T05:51:12;14.10;99.90
52859;DHT22;38721;53.098;6.596;2023-08-08T05:53:37;14.20;99.90
52859;DHT22;38721;53.098;6.596;2023-08-08T05:56:04;14.30;99.90
52859;DHT22;38721;53.098;6.596;2023-08-08T05:58:29;14.40;99.90
52859;DHT22;38721;53.098;6.596;2023-08-08T06:00:55;14.50;99.90
52859;DHT22;38721;53.098;6.596;2023-08-08T06:03:21;14.50;99.90
52859;DHT22;38721;53.098;6.596;2023-08-08T06:05:46;14.60;99.90
52859;DHT22;38721;53.098;6.596;2023-08-08T06:08:12;14.70;99.90
52859;DHT22;38721;53.098;6.596;2023-08-08T06:10:39;14.70;99.90
52859;DHT22;38721;53.098;6.596;2023-08-08T06:13:04;14.80;99.90
52859;DHT22;38721;53.098;6.596;2023-08-08T06:15:33;14.90;99.90
52859;DHT22;38721;53.098;6.596;2023-08-08T06:17:59;15.00;99.90
52859;DHT22;38721;53.098;6.596;2023-08-08T06:20:25;15.10;99.90
52859;DHT22;38721;53.098;6.596;2023-08-08T06:22:52;15.10;99.90
52859;DHT22;38721;53.098;6.596;2023-08-08T06:25:17;15.20;99.90
52859;DHT22;38721;53.098;6.596;2023-08-08T06:27:43;15.20;99.90
52859;DHT22;38721;53.098;6.596;2023-08-08T06:30:09;15.30;99.90
52859;DHT22;38721;53.098;6.596;2023-08-08T06:32:34;15.40;99.90
52859;DHT22;38721;53.098;6.596;2023-08-08T06:35:00;15.40;99.90
52859;DHT22;38721;53.098;6.596;2023-08-08T06:37:26;15.40;99.90
52859;DHT22;38721;53.098;6.596;2023-08-08T06:39:51;15.50;99.90
52859;DHT22;38721;53.098;6.596;2023-08-08T06:42:17;15.60;99.90
52859;DHT22;38721;53.098;6.596;2023-08-08T06:44:44;15.70;99.90
52859;DHT22;38721;53.098;6.596;2023-08-08T06:47:10;15.70;99.90
52859;DHT22;38721;53.098;6.596;2023-08-08T06:49:37;15.80;99.90
52859;DHT22;38721;53.098;6.596;2023-08-08T06:52:04;15.80;99.90
52859;DHT22;38721;53.098;6.596;2023-08-08T06:54:29;15.90;99.90
52859;DHT22;38721;53.098;6.596;2023-08-08T06:56:55;15.90;99.90
52859;DHT22;38721;53.098;6.596;2023-08-08T06:59:23;16.10;99.90
52859;DHT22;38721;53.098;6.596;2023-08-08T07:01:50;16.00;99.90
52859;DHT22;38721;53.098;6.596;2023-08-08T07:04:16;16.00;99.90
52859;DHT22;38721;53.098;6.596;2023-08-08T07:06:43;16.10;99.90
52859;DHT22;38721;53.098;6.596;2023-08-08T07:09:08;16.20;99.90
52859;DHT22;38721;53.098;6.596;2023-08-08T07:11:36;16.30;99.90
52859;DHT22;38721;53.098;6.596;2023-08-08T07:14:02;16.40;99.90
52859;DHT22;38721;53.098;6.596;2023-08-08T07:16:28;16.50;99.90
52859;DHT22;38721;53.098;6.596;2023-08-08T07:18:53;16.40;99.90
52859;DHT22;38721;53.098;6.596;2023-08-08T07:21:19;16.50;99.90
52859;DHT22;38721;53.098;6.596;2023-08-08T07:23:46;16.60;99.90
52859;DHT22;38721;53.098;6.596;2023-08-08T07:26:11;16.70;99.90
52859;DHT22;38721;53.098;6.596;2023-08-08T07:28:37;16.80;99.90
52859;DHT22;38721;53.098;6.596;2023-08-08T07:31:03;17.10;99.90
52859;DHT22;38721;53.098;6.596;2023-08-08T07:33:29;17.30;99.90
52859;DHT22;38721;53.098;6.596;2023-08-08T07:35:54;17.00;99.90
52859;DHT22;38721;53.098;6.596;2023-08-08T07:38:20;17.00;99.90
52859;DHT22;38721;53.098;6.596;2023-08-08T07:40:46;16.90;99.90
52859;DHT22;38721;53.098;6.596;2023-08-08T07:43:12;16.90;99.90
52859;DHT22;38721;53.098;6.596;2023-08-08T07:45:38;16.90;99.90
52859;DHT22;38721;53.098;6.596;2023-08-08T07:48:04;16.90;99.90
52859;DHT22;38721;53.098;6.596;2023-08-08T07:50:30;17.10;99.90
52859;DHT22;38721;53.098;6.596;2023-08-08T07:52:56;17.30;99.90
52859;DHT22;38721;53.098;6.596;2023-08-08T07:55:22;17.30;99.90
52859;DHT22;38721;53.098;6.596;2023-08-08T07:57:47;17.50;99.90
52859;DHT22;38721;53.098;6.596;2023-08-08T08:00:14;17.30;99.90
52859;DHT22;38721;53.098;6.596;2023-08-08T08:02:41;17.40;99.90
52859;DHT22;38721;53.098;6.596;2023-08-08T08:05:07;17.40;99.90
52859;DHT22;38721;53.098;6.596;2023-08-08T08:07:34;17.40;99.90
52859;DHT22;38721;53.098;6.596;2023-08-08T08:10:01;17.30;99.90
52859;DHT22;38721;53.098;6.596;2023-08-08T08:12:29;17.30;99.90
52859;DHT22;38721;53.098;6.596;2023-08-08T08:14:54;17.30;99.90
52859;DHT22;38721;53.098;6.596;2023-08-08T08:17:23;17.30;99.90
52859;DHT22;38721;53.098;6.596;2023-08-08T08:19:50;17.30;99.90
52859;DHT22;38721;53.098;6.596;2023-08-08T08:22:17;17.40;99.90
52859;DHT22;38721;53.098;6.596;2023-08-08T08:24:42;17.50;99.90
52859;DHT22;38721;53.098;6.596;2023-08-08T08:27:10;17.50;99.90
52859;DHT22;38721;53.098;6.596;2023-08-08T08:29:39;17.30;99.90
52859;DHT22;38721;53.098;6.596;2023-08-08T08:32:05;17.30;99.90
52859;DHT22;38721;53.098;6.596;2023-08-08T08:34:31;17.30;99.90
52859;DHT22;38721;53.098;6.596;2023-08-08T08:36:57;17.40;99.90
52859;DHT22;38721;53.098;6.596;2023-08-08T08:39:22;17.70;99.90
52859;DHT22;38721;53.098;6.596;2023-08-08T08:41:49;17.60;99.90
52859;DHT22;38721;53.098;6.596;2023-08-08T08:44:17;17.40;99.90
52859;DHT22;38721;53.098;6.596;2023-08-08T08:46:44;17.30;99.90
52859;DHT22;38721;53.098;6.596;2023-08-08T08:49:14;17.20;99.90
52859;DHT22;38721;53.098;6.596;2023-08-08T08:51:40;17.00;99.90
52859;DHT22;38721;53.098;6.596;2023-08-08T08:54:06;17.20;99.90
52859;DHT22;38721;53.098;6.596;2023-08-08T08:56:32;16.90;99.90
52859;DHT22;38721;53.098;6.596;2023-08-08T08:58:59;17.20;99.90
52859;DHT22;38721;53.098;6.596;2023-08-08T09:01:25;17.50;99.90
52859;DHT22;38721;53.098;6.596;2023-08-08T09:03:53;17.60;99.90
52859;DHT22;38721;53.098;6.596;2023-08-08T09:06:18;17.50;99.90
52859;DHT22;38721;53.098;6.596;2023-08-08T09:08:46;17.30;99.90
52859;DHT22;38721;53.098;6.596;2023-08-08T09:11:13;17.40;99.90
52859;DHT22;38721;53.098;6.596;2023-08-08T09:13:42;17.70;99.90
52859;DHT22;38721;53.098;6.596;2023-08-08T09:16:08;17.90;99.90
52859;DHT22;38721;53.098;6.596;2023-08-08T09:18:35;18.20;99.90
52859;DHT22;38721;53.098;6.596;2023-08-08T09:21:04;17.80;99.90
52859;DHT22;38721;53.098;6.596;2023-08-08T09:23:30;17.80;99.90
52859;DHT22;38721;53.098;6.596;2023-08-08T09:25:55;17.60;99.90
52859;DHT22;38721;53.098;6.596;2023-08-08T09:28:21;17.40;99.90
52859;DHT22;38721;53.098;6.596;2023-08-08T09:30:48;17.80;99.90
52859;DHT22;38721;53.098;6.596;2023-08-08T09:33:13;18.30;99.90
52859;DHT22;38721;53.098;6.596;2023-08-08T09:35:39;18.10;99.90
52859;DHT22;38721;53.098;6.596;2023-08-08T09:38:05;17.50;99.90
52859;DHT22;38721;53.098;6.596;2023-08-08T09:40:31;17.40;99.90
52859;DHT22;38721;53.098;6.596;2023-08-08T09:43:00;18.00;99.90
52859;DHT22;38721;53.098;6.596;2023-08-08T09:45:26;18.40;99.90
52859;DHT22;38721;53.098;6.596;2023-08-08T09:47:52;18.90;99.90
52859;DHT22;38721;53.098;6.596;2023-08-08T09:50:18;18.40;99.90
52859;DHT22;38721;53.098;6.596;2023-08-08T09:52:46;17.90;99.90
52859;DHT22;38721;53.098;6.596;2023-08-08T09:55:12;17.50;99.90
52859;DHT22;38721;53.098;6.596;2023-08-08T09:57:41;17.30;99.90
52859;DHT22;38721;53.098;6.596;2023-08-08T10:00:09;17.40;99.90
52859;DHT22;38721;53.098;6.596;2023-08-08T10:02:45;17.20;99.90
52859;DHT22;38721;53.098;6.596;2023-08-08T10:05:14;18.00;99.90
52859;DHT22;38721;53.098;6.596;2023-08-08T10:07:44;18.60;99.90
52859;DHT22;38721;53.098;6.596;2023-08-08T10:10:10;18.70;99.90
52859;DHT22;38721;53.098;6.596;2023-08-08T10:12:38;18.30;99.90
52859;DHT22;38721;53.098;6.596;2023-08-08T10:15:07;17.90;99.90
52859;DHT22;38721;53.098;6.596;2023-08-08T10:17:41;17.50;99.90
52859;DHT22;38721;53.098;6.596;2023-08-08T10:20:09;17.80;99.90
52859;DHT22;38721;53.098;6.596;2023-08-08T10:22:45;18.20;99.90
52859;DHT22;38721;53.098;6.596;2023-08-08T10:25:19;18.30;99.90
52859;DHT22;38721;53.098;6.596;2023-08-08T10:27:48;17.90;99.90
52859;DHT22;38721;53.098;6.596;2023-08-08T10:30:14;17.80;99.90
52859;DHT22;38721;53.098;6.596;2023-08-08T10:32:42;17.90;99.90
52859;DHT22;38721;53.098;6.596;2023-08-08T10:35:09;17.90;99.90
52859;DHT22;38721;53.098;6.596;2023-08-08T10:37:35;18.70;99.90
52859;DHT22;38721;53.098;6.596;2023-08-08T10:40:02;19.40;99.90
52859;DHT22;38721;53.098;6.596;2023-08-08T10:42:43;19.20;99.90
52859;DHT22;38721;53.098;6.596;2023-08-08T10:45:14;18.30;99.90
52859;DHT22;38721;53.098;6.596;2023-08-08T10:47:41;18.00;99.90
52859;DHT22;38721;53.098;6.596;2023-08-08T10:50:12;18.60;99.90
52859;DHT22;38721;53.098;6.596;2023-08-08T10:52:53;18.80;99.90
52859;DHT22;38721;53.098;6.596;2023-08-08T10:55:20;19.40;99.90
52859;DHT22;38721;53.098;6.596;2023-08-08T10:58:13;19.40;99.90
52859;DHT22;38721;53.098;6.596;2023-08-08T11:00:41;19.40;99.90
52859;DHT22;38721;53.098;6.596;2023-08-08T11:03:10;19.20;99.90
52859;DHT22;38721;53.098;6.596;2023-08-08T11:05:37;19.10;99.90
52859;DHT22;38721;53.098;6.596;2023-08-08T11:08:04;19.20;99.90
52859;DHT22;38721;53.098;6.596;2023-08-08T11:10:38;19.60;99.90
52859;DHT22;38721;53.098;6.596;2023-08-08T11:13:06;19.60;99.90
52859;DHT22;38721;53.098;6.596;2023-08-08T11:15:33;19.60;99.90
52859;DHT22;38721;53.098;6.596;2023-08-08T11:18:00;20.00;99.90
52859;DHT22;38721;53.098;6.596;2023-08-08T11:20:33;19.50;99.90
52859;DHT22;38721;53.098;6.596;2023-08-08T11:23:00;19.40;99.90
52859;DHT22;38721;53.098;6.596;2023-08-08T11:25:27;19.40;99.90
52859;DHT22;38721;53.098;6.596;2023-08-08T11:27:54;18.80;99.90
52859;DHT22;38721;53.098;6.596;2023-08-08T11:30:21;18.50;99.90
52859;DHT22;38721;53.098;6.596;2023-08-08T11:32:49;18.30;99.90
52859;DHT22;38721;53.098;6.596;2023-08-08T11:35:24;18.70;99.90
52859;DHT22;38721;53.098;6.596;2023-08-08T11:37:51;18.80;99.90
52859;DHT22;38721;53.098;6.596;2023-08-08T11:40:17;18.90;99.90
52859;DHT22;38721;53.098;6.596;2023-08-08T11:42:46;19.20;99.90
52859;DHT22;38721;53.098;6.596;2023-08-08T11:45:13;19.10;99.90
52859;DHT22;38721;53.098;6.596;2023-08-08T11:47:40;18.40;99.90
52859;DHT22;38721;53.098;6.596;2023-08-08T11:50:07;18.00;99.90
52859;DHT22;38721;53.098;6.596;2023-08-08T11:52:36;18.60;99.90
52859;DHT22;38721;53.098;6.596;2023-08-08T11:55:05;18.40;99.90
52859;DHT22;38721;53.098;6.596;2023-08-08T11:57:33;17.80;99.90
52859;DHT22;38721;53.098;6.596;2023-08-08T11:59:59;17.90;99.90
52859;DHT22;38721;53.098;6.596;2023-08-08T12:02:26;18.30;99.90
52859;DHT22;38721;53.098;6.596;2023-08-08T12:04:52;18.90;99.90
52859;DHT22;38721;53.098;6.596;2023-08-08T12:07:18;18.40;99.90
52859;DHT22;38721;53.098;6.596;2023-08-08T12:09:47;17.90;99.90
52859;DHT22;38721;53.098;6.596;2023-08-08T12:12:13;17.70;99.90
52859;DHT22;38721;53.098;6.596;2023-08-08T12:14:39;18.40;99.90
52859;DHT22;38721;53.098;6.596;2023-08-08T12:17:05;19.20;99.90
52859;DHT22;38721;53.098;6.596;2023-08-08T12:19:31;20.10;99.90
52859;DHT22;38721;53.098;6.596;2023-08-08T12:22:00;20.10;99.90
52859;DHT22;38721;53.098;6.596;2023-08-08T12:24:26;19.70;99.90
52859;DHT22;38721;53.098;6.596;2023-08-08T12:26:52;19.40;99.90
52859;DHT22;38721;53.098;6.596;2023-08-08T12:29:18;19.90;99.90
52859;DHT22;38721;53.098;6.596;2023-08-08T12:31:43;19.20;99.90
52859;DHT22;38721;53.098;6.596;2023-08-08T12:34:09;18.90;99.90
52859;DHT22;38721;53.098;6.596;2023-08-08T12:36:35;19.40;99.90
52859;DHT22;38721;53.098;6.596;2023-08-08T12:39:01;20.00;99.90
52859;DHT22;38721;53.098;6.596;2023-08-08T12:41:26;19.90;99.90
52859;DHT22;38721;53.098;6.596;2023-08-08T12:43:52;20.30;99.90
52859;DHT22;38721;53.098;6.596;2023-08-08T12:46:18;20.40;99.90
52859;DHT22;38721;53.098;6.596;2023-08-08T12:48:44;20.40;99.90
52859;DHT22;38721;53.098;6.596;2023-08-08T12:51:10;20.40;99.90
52859;DHT22;38721;53.098;6.596;2023-08-08T12:53:37;19.90;99.90
52859;DHT22;38721;53.098;6.596;2023-08-08T12:56:03;19.90;99.90
52859;DHT22;38721;53.098;6.596;2023-08-08T12:58:29;19.50;99.90
52859;DHT22;38721;53.098;6.596;2023-08-08T13:00:58;19.20;99.90
52859;DHT22;38721;53.098;6.596;2023-08-08T13:03:24;18.70;99.90
52859;DHT22;38721;53.098;6.596;2023-08-08T13:05:49;18.60;99.90
52859;DHT22;38721;53.098;6.596;2023-08-08T13:08:15;18.30;99.90
52859;DHT22;38721;53.098;6.596;2023-08-08T13:10:41;18.60;99.90
52859;DHT22;38721;53.098;6.596;2023-08-08T13:13:06;19.40;99.90
52859;DHT22;38721;53.098;6.596;2023-08-08T13:15:32;19.60;99.90
52859;DHT22;38721;53.098;6.596;2023-08-08T13:17:58;19.80;99.90
52859;DHT22;38721;53.098;6.596;2023-08-08T13:20:26;20.40;99.90
52859;DHT22;38721;53.098;6.596;2023-08-08T13:22:51;20.30;99.90
52859;DHT22;38721;53.098;6.596;2023-08-08T13:25:17;20.30;99.90
52859;DHT22;38721;53.098;6.596;2023-08-08T13:27:44;20.20;99.90
52859;DHT22;38721;53.098;6.596;2023-08-08T13:30:10;20.70;99.90
52859;DHT22;38721;53.098;6.596;2023-08-08T13:32:36;20.50;99.90
52859;DHT22;38721;53.098;6.596;2023-08-08T13:35:02;20.00;99.90
52859;DHT22;38721;53.098;6.596;2023-08-08T13:37:28;19.70;99.90
52859;DHT22;38721;53.098;6.596;2023-08-08T13:39:54;19.60;99.90
52859;DHT22;38721;53.098;6.596;2023-08-08T13:42:20;19.70;99.90
52859;DHT22;38721;53.098;6.596;2023-08-08T13:44:46;20.20;99.90
52859;DHT22;38721;53.098;6.596;2023-08-08T13:47:11;20.30;99.90
52859;DHT22;38721;53.098;6.596;2023-08-08T13:49:37;19.80;99.90
52859;DHT22;38721;53.098;6.596;2023-08-08T13:52:03;19.70;99.90
52859;DHT22;38721;53.098;6.596;2023-08-08T13:54:28;18.90;99.90
52859;DHT22;38721;53.098;6.596;2023-08-08T13:56:54;19.30;99.90
52859;DHT22;38721;53.098;6.596;2023-08-08T13:59:20;18.60;99.90
52859;DHT22;38721;53.098;6.596;2023-08-08T14:01:46;18.20;99.90
52859;DHT22;38721;53.098;6.596;2023-08-08T14:04:11;18.30;99.90
52859;DHT22;38721;53.098;6.596;2023-08-08T14:06:37;18.30;99.90
52859;DHT22;38721;53.098;6.596;2023-08-08T14:09:03;18.10;99.90
52859;DHT22;38721;53.098;6.596;2023-08-08T14:11:29;18.30;99.90
52859;DHT22;38721;53.098;6.596;2023-08-08T14:13:55;18.50;99.90
52859;DHT22;38721;53.098;6.596;2023-08-08T14:16:21;18.80;99.90
52859;DHT22;38721;53.098;6.596;2023-08-08T14:18:46;18.20;99.90
52859;DHT22;38721;53.098;6.596;2023-08-08T14:21:13;18.20;99.90
52859;DHT22;38721;53.098;6.596;2023-08-08T14:23:39;18.00;99.90
52859;DHT22;38721;53.098;6.596;2023-08-08T14:26:05;17.70;99.90
52859;DHT22;38721;53.098;6.596;2023-08-08T14:28:31;17.60;99.90
52859;DHT22;38721;53.098;6.596;2023-08-08T14:30:56;17.90;99.90
52859;DHT22;38721;53.098;6.596;2023-08-08T14:33:22;18.50;99.90
52859;DHT22;38721;53.098;6.596;2023-08-08T14:35:48;19.30;99.90
52859;DHT22;38721;53.098;6.596;2023-08-08T14:38:14;19.40;99.90
52859;DHT22;38721;53.098;6.596;2023-08-08T14:40:39;20.30;99.90
52859;DHT22;38721;53.098;6.596;2023-08-08T14:43:05;19.60;99.90
52859;DHT22;38721;53.098;6.596;2023-08-08T14:45:36;19.70;99.90
52859;DHT22;38721;53.098;6.596;2023-08-08T14:48:04;20.00;99.90
52859;DHT22;38721;53.098;6.596;2023-08-08T14:50:30;19.80;99.90
52859;DHT22;38721;53.098;6.596;2023-08-08T14:52:56;19.80;99.90
52859;DHT22;38721;53.098;6.596;2023-08-08T14:55:22;19.70;99.90
52859;DHT22;38721;53.098;6.596;2023-08-08T14:57:48;20.40;99.90
52859;DHT22;38721;53.098;6.596;2023-08-08T15:00:14;20.20;99.90
52859;DHT22;38721;53.098;6.596;2023-08-08T15:02:39;19.50;99.90
52859;DHT22;38721;53.098;6.596;2023-08-08T15:05:06;18.30;99.90
52859;DHT22;38721;53.098;6.596;2023-08-08T15:07:35;17.90;99.90
52859;DHT22;38721;53.098;6.596;2023-08-08T15:10:01;18.60;99.90
52859;DHT22;38721;53.098;6.596;2023-08-08T15:12:26;19.20;99.90
52859;DHT22;38721;53.098;6.596;2023-08-08T15:14:52;19.50;99.90
52859;DHT22;38721;53.098;6.596;2023-08-08T15:17:18;19.80;99.90
52859;DHT22;38721;53.098;6.596;2023-08-08T15:19:43;20.10;99.90
52859;DHT22;38721;53.098;6.596;2023-08-08T15:22:12;20.60;99.90
52859;DHT22;38721;53.098;6.596;2023-08-08T15:24:37;19.40;99.90
52859;DHT22;38721;53.098;6.596;2023-08-08T15:27:03;18.80;99.90